sensor_id;sensor_type;location;lat;lon;timestamp;pressure;altitude;pressure_sealevel;temperature;humidity
10366;BME280;5229;41.820;23.490;2022-11-25T00:01:06;89567.50;;;6.83;52.08
10366;BME280;5229;41.820;23.490;2022-11-25T00:03:34;89576.00;;;6.83;53.15
10366;BME280;5229;41.820;23.490;2022-11-25T00:06:09;89572.63;;;6.83;53.40
10366;BME280;5229;41.820;23.490;2022-11-25T00:08:37;89572.94;;;6.81;53.23
10366;BME280;5229;41.820;23.490;2022-11-25T00:11:05;89576.84;;;6.79;52.33
10366;BME280;5229;41.820;23.490;2022-11-25T00:13:32;89582.59;;;6.76;52.72
10366;BME280;5229;41.820;23.490;2022-11-25T00:16:00;89576.50;;;6.72;53.55
10366;BME280;5229;41.820;23.490;2022-11-25T00:18:28;89585.28;;;6.71;53.36
10366;BME280;5229;41.820;23.490;2022-11-25T00:20:57;89578.59;;;6.70;53.08
10366;BME280;5229;41.820;23.490;2022-11-25T00:23:24;89583.75;;;6.70;53.88
10366;BME280;5229;41.820;23.490;2022-11-25T00:25:51;89583.44;;;6.71;53.35
10366;BME280;5229;41.820;23.490;2022-11-25T00:28:18;89580.13;;;6.71;53.37
10366;BME280;5229;41.820;23.490;2022-11-25T00:30:45;89588.31;;;6.73;53.75
10366;BME280;5229;41.820;23.490;2022-11-25T00:33:12;89576.22;;;6.73;52.76
10366;BME280;5229;41.820;23.490;2022-11-25T00:35:39;89585.28;;;6.71;53.20
10366;BME280;5229;41.820;23.490;2022-11-25T00:38:07;89588.59;;;6.71;52.17
10366;BME280;5229;41.820;23.490;2022-11-25T00:40:34;89585.75;;;6.73;52.24
10366;BME280;5229;41.820;23.490;2022-11-25T00:43:01;89586.78;;;6.72;52.79
10366;BME280;5229;41.820;23.490;2022-11-25T00:45:45;89586.78;;;6.72;52.76
10366;BME280;5229;41.820;23.490;2022-11-25T00:48:11;89586.22;;;6.75;52.44
10366;BME280;5229;41.820;23.490;2022-11-25T00:50:38;89581.53;;;6.77;52.46
10366;BME280;5229;41.820;23.490;2022-11-25T00:53:07;89576.84;;;6.79;52.78
10366;BME280;5229;41.820;23.490;2022-11-25T00:55:34;89586.38;;;6.78;52.60
10366;BME280;5229;41.820;23.490;2022-11-25T00:58:14;89586.69;;;6.77;52.36
10366;BME280;5229;41.820;23.490;2022-11-25T01:00:41;89582.09;;;6.74;52.05
10366;BME280;5229;41.820;23.490;2022-11-25T01:03:10;89584.22;;;6.72;52.88
10366;BME280;5229;41.820;23.490;2022-11-25T01:05:36;89582.22;;;6.69;52.90
10366;BME280;5229;41.820;23.490;2022-11-25T01:08:03;89579.16;;;6.67;52.22
10366;BME280;5229;41.820;23.490;2022-11-25T01:10:32;89569.19;;;6.65;52.68
10366;BME280;5229;41.820;23.490;2022-11-25T01:12:58;89585.94;;;6.63;52.68
10366;BME280;5229;41.820;23.490;2022-11-25T01:15:25;89571.06;;;6.60;52.66
10366;BME280;5229;41.820;23.490;2022-11-25T01:17:52;89580.13;;;6.57;52.86
10366;BME280;5229;41.820;23.490;2022-11-25T01:20:19;89595.44;;;6.54;53.15
10366;BME280;5229;41.820;23.490;2022-11-25T01:22:46;89582.06;;;6.52;52.36
10366;BME280;5229;41.820;23.490;2022-11-25T01:25:13;89584.06;;;6.55;52.38
10366;BME280;5229;41.820;23.490;2022-11-25T01:27:41;89583.59;;;6.53;52.10
10366;BME280;5229;41.820;23.490;2022-11-25T01:30:08;89588.56;;;6.49;52.16
10366;BME280;5229;41.820;23.490;2022-11-25T01:32:35;89584.75;;;6.47;53.25
10366;BME280;5229;41.820;23.490;2022-11-25T01:35:03;89577.03;;;6.47;52.77
10366;BME280;5229;41.820;23.490;2022-11-25T01:37:30;89575.03;;;6.44;52.55
10366;BME280;5229;41.820;23.490;2022-11-25T01:39:57;89571.22;;;6.41;53.32
10366;BME280;5229;41.820;23.490;2022-11-25T01:42:27;89588.03;;;6.39;53.48
10366;BME280;5229;41.820;23.490;2022-11-25T01:48:08;89588.59;;;6.36;53.08
10366;BME280;5229;41.820;23.490;2022-11-25T01:50:37;89588.03;;;6.39;53.24
10366;BME280;5229;41.820;23.490;2022-11-25T01:53:06;89586.47;;;6.38;53.81
10366;BME280;5229;41.820;23.490;2022-11-25T01:55:35;89592.41;;;6.38;53.83
10366;BME280;5229;41.820;23.490;2022-11-25T01:58:06;89584.38;;;6.40;53.23
10366;BME280;5229;41.820;23.490;2022-11-25T02:00:35;89591.53;;;6.43;53.77
10366;BME280;5229;41.820;23.490;2022-11-25T02:03:05;89594.13;;;6.43;53.44
10366;BME280;5229;41.820;23.490;2022-11-25T02:05:38;89591.25;;;6.44;53.20
10366;BME280;5229;41.820;23.490;2022-11-25T02:08:08;89596.56;;;6.48;52.94
10366;BME280;5229;41.820;23.490;2022-11-25T02:10:36;89597.81;;;6.50;53.40
10366;BME280;5229;41.820;23.490;2022-11-25T02:13:03;89583.59;;;6.53;53.34
10366;BME280;5229;41.820;23.490;2022-11-25T02:15:32;89599.22;;;6.56;53.32
10366;BME280;5229;41.820;23.490;2022-11-25T02:18:00;89583.78;;;6.56;52.92
10366;BME280;5229;41.820;23.490;2022-11-25T02:20:28;89584.56;;;6.57;52.29
10366;BME280;5229;41.820;23.490;2022-11-25T02:22:59;89589.69;;;6.57;52.44
10366;BME280;5229;41.820;23.490;2022-11-25T02:25:31;89588.94;;;6.56;53.38
10366;BME280;5229;41.820;23.490;2022-11-25T02:28:02;89577.84;;;6.56;53.19
10366;BME280;5229;41.820;23.490;2022-11-25T02:30:29;89571.47;;;6.53;52.76
10366;BME280;5229;41.820;23.490;2022-11-25T02:32:57;89574.81;;;6.54;53.34
10366;BME280;5229;41.820;23.490;2022-11-25T02:35:27;89588.75;;;6.53;52.18
10366;BME280;5229;41.820;23.490;2022-11-25T02:37:58;89591.78;;;6.55;52.45
10366;BME280;5229;41.820;23.490;2022-11-25T02:40:26;89584.63;;;6.52;52.92
10366;BME280;5229;41.820;23.490;2022-11-25T02:42:57;89586.47;;;6.51;53.04
10366;BME280;5229;41.820;23.490;2022-11-25T02:45:42;89589.91;;;6.47;52.83
10366;BME280;5229;41.820;23.490;2022-11-25T02:48:10;89583.97;;;6.46;53.04
10366;BME280;5229;41.820;23.490;2022-11-25T02:50:37;89590.47;;;6.44;53.22
10366;BME280;5229;41.820;23.490;2022-11-25T02:53:04;89580.94;;;6.44;52.29
10366;BME280;5229;41.820;23.490;2022-11-25T02:55:31;89587.13;;;6.43;52.59
10366;BME280;5229;41.820;23.490;2022-11-25T02:57:59;89589.53;;;6.40;52.94
10366;BME280;5229;41.820;23.490;2022-11-25T03:00:26;89591.91;;;6.36;53.29
10366;BME280;5229;41.820;23.490;2022-11-25T03:02:53;89585.53;;;6.34;53.46
10366;BME280;5229;41.820;23.490;2022-11-25T03:05:20;89595.66;;;6.30;52.75
10366;BME280;5229;41.820;23.490;2022-11-25T03:07:48;89601.38;;;6.27;53.05
10366;BME280;5229;41.820;23.490;2022-11-25T03:10:14;89599.38;;;6.24;52.99
10366;BME280;5229;41.820;23.490;2022-11-25T03:12:42;89601.28;;;6.19;53.56
10366;BME280;5229;41.820;23.490;2022-11-25T03:15:10;89607.00;;;6.16;53.70
10366;BME280;5229;41.820;23.490;2022-11-25T03:17:37;89602.69;;;6.11;53.28
10366;BME280;5229;41.820;23.490;2022-11-25T03:20:05;89614.34;;;6.08;53.21
10366;BME280;5229;41.820;23.490;2022-11-25T03:22:32;89597.09;;;6.09;53.87
10366;BME280;5229;41.820;23.490;2022-11-25T03:24:59;89604.03;;;6.08;53.69
10366;BME280;5229;41.820;23.490;2022-11-25T03:27:26;89612.81;;;6.07;53.63
10366;BME280;5229;41.820;23.490;2022-11-25T03:29:53;89613.84;;;6.06;53.43
10366;BME280;5229;41.820;23.490;2022-11-25T03:32:21;89605.94;;;6.03;52.89
10366;BME280;5229;41.820;23.490;2022-11-25T03:34:48;89606.22;;;6.01;52.88
10366;BME280;5229;41.820;23.490;2022-11-25T03:37:15;89606.78;;;5.98;52.62
10366;BME280;5229;41.820;23.490;2022-11-25T03:39:42;89610.88;;;5.99;53.26
10366;BME280;5229;41.820;23.490;2022-11-25T03:42:09;89609.28;;;6.03;52.62
10366;BME280;5229;41.820;23.490;2022-11-25T03:44:35;89613.84;;;6.06;52.20
10366;BME280;5229;41.820;23.490;2022-11-25T03:47:02;89615.38;;;6.07;52.78
10366;BME280;5229;41.820;23.490;2022-11-25T03:49:30;89617.41;;;6.11;52.12
10366;BME280;5229;41.820;23.490;2022-11-25T03:51:58;89625.56;;;6.13;51.84
10366;BME280;5229;41.820;23.490;2022-11-25T03:54:25;89632.25;;;6.13;51.58
10366;BME280;5229;41.820;23.490;2022-11-25T03:56:52;89633.00;;;6.14;51.65
10366;BME280;5229;41.820;23.490;2022-11-25T03:59:19;89632.25;;;6.13;52.05
10366;BME280;5229;41.820;23.490;2022-11-25T04:01:46;89634.81;;;6.13;52.39
10366;BME280;5229;41.820;23.490;2022-11-25T04:04:13;89638.44;;;6.13;51.86
10366;BME280;5229;41.820;23.490;2022-11-25T04:06:41;89639.50;;;6.12;51.55
10366;BME280;5229;41.820;23.490;2022-11-25T04:09:08;89639.97;;;6.13;51.57
10366;BME280;5229;41.820;23.490;2022-11-25T04:11:36;89650.56;;;6.12;51.55
10366;BME280;5229;41.820;23.490;2022-11-25T04:14:35;89652.38;;;6.12;51.33
10366;BME280;5229;41.820;23.490;2022-11-25T04:17:02;89657.97;;;6.13;51.13
10366;BME280;5229;41.820;23.490;2022-11-25T04:19:29;89653.31;;;6.16;51.94
10366;BME280;5229;41.820;23.490;2022-11-25T04:21:57;89654.00;;;6.21;52.09
10366;BME280;5229;41.820;23.490;2022-11-25T04:24:25;89652.66;;;6.24;51.83
10366;BME280;5229;41.820;23.490;2022-11-25T04:26:52;89657.78;;;6.24;52.02
10366;BME280;5229;41.820;23.490;2022-11-25T04:29:19;89657.22;;;6.27;51.10
10366;BME280;5229;41.820;23.490;2022-11-25T04:31:46;89656.66;;;6.30;51.02
10366;BME280;5229;41.820;23.490;2022-11-25T04:34:13;89652.94;;;6.36;51.54
10366;BME280;5229;41.820;23.490;2022-11-25T04:36:40;89653.69;;;6.36;50.61
10366;BME280;5229;41.820;23.490;2022-11-25T04:39:10;89660.09;;;6.39;50.94
10366;BME280;5229;41.820;23.490;2022-11-25T04:41:36;89660.56;;;6.41;51.17
10366;BME280;5229;41.820;23.490;2022-11-25T04:44:03;89662.09;;;6.42;51.81
10366;BME280;5229;41.820;23.490;2022-11-25T04:46:33;89657.44;;;6.44;51.19
10366;BME280;5229;41.820;23.490;2022-11-25T04:49:01;89661.06;;;6.43;51.75
10366;BME280;5229;41.820;23.490;2022-11-25T04:51:28;89665.16;;;6.44;52.50
10366;BME280;5229;41.820;23.490;2022-11-25T04:53:56;89664.66;;;6.42;51.83
10366;BME280;5229;41.820;23.490;2022-11-25T04:56:24;89668.28;;;6.41;52.55
10366;BME280;5229;41.820;23.490;2022-11-25T04:58:51;89673.44;;;6.41;52.14
10366;BME280;5229;41.820;23.490;2022-11-25T05:01:35;89671.72;;;6.36;52.62
10366;BME280;5229;41.820;23.490;2022-11-25T05:04:02;89681.28;;;6.36;52.52
10366;BME280;5229;41.820;23.490;2022-11-25T05:06:29;89687.00;;;6.33;52.84
10366;BME280;5229;41.820;23.490;2022-11-25T05:08:56;89695.00;;;6.31;53.29
10366;BME280;5229;41.820;23.490;2022-11-25T05:11:24;89707.59;;;6.33;52.95
10366;BME280;5229;41.820;23.490;2022-11-25T05:13:51;89706.34;;;6.30;53.15
10366;BME280;5229;41.820;23.490;2022-11-25T05:16:17;89711.00;;;6.28;53.21
10366;BME280;5229;41.820;23.490;2022-11-25T05:18:44;89727.22;;;6.29;53.47
10366;BME280;5229;41.820;23.490;2022-11-25T05:21:11;89720.53;;;6.28;52.83
10366;BME280;5229;41.820;23.490;2022-11-25T05:23:38;89724.16;;;6.27;53.84
10366;BME280;5229;41.820;23.490;2022-11-25T05:26:05;89725.69;;;6.28;53.26
10366;BME280;5229;41.820;23.490;2022-11-25T05:28:33;89729.03;;;6.28;53.47
10366;BME280;5229;41.820;23.490;2022-11-25T05:31:00;89741.91;;;6.28;53.27
10366;BME280;5229;41.820;23.490;2022-11-25T05:33:27;89744.97;;;6.30;52.57
10366;BME280;5229;41.820;23.490;2022-11-25T05:35:55;89751.13;;;6.29;52.51
10366;BME280;5229;41.820;23.490;2022-11-25T05:38:22;89759.63;;;6.30;52.77
10366;BME280;5229;41.820;23.490;2022-11-25T05:40:49;89751.91;;;6.30;53.36
10366;BME280;5229;41.820;23.490;2022-11-25T05:43:16;89769.38;;;6.33;52.91
10366;BME280;5229;41.820;23.490;2022-11-25T05:45:45;89774.69;;;6.36;52.84
10366;BME280;5229;41.820;23.490;2022-11-25T05:48:11;89771.66;;;6.34;52.63
10366;BME280;5229;41.820;23.490;2022-11-25T05:50:38;89781.19;;;6.34;52.13
10366;BME280;5229;41.820;23.490;2022-11-25T05:53:05;89776.53;;;6.36;51.70
10366;BME280;5229;41.820;23.490;2022-11-25T05:55:32;89787.28;;;6.38;51.43
10366;BME280;5229;41.820;23.490;2022-11-25T05:57:59;89794.19;;;6.42;51.78
10366;BME280;5229;41.820;23.490;2022-11-25T06:00:27;89800.84;;;6.43;51.32
10366;BME280;5229;41.820;23.490;2022-11-25T06:02:55;89807.72;;;6.48;51.51
10366;BME280;5229;41.820;23.490;2022-11-25T06:05:22;89815.44;;;6.48;50.84
10366;BME280;5229;41.820;23.490;2022-11-25T06:07:49;89814.41;;;6.49;50.95
10366;BME280;5229;41.820;23.490;2022-11-25T06:10:17;89819.53;;;6.49;50.86
10366;BME280;5229;41.820;23.490;2022-11-25T06:12:44;89820.03;;;6.51;51.03
10366;BME280;5229;41.820;23.490;2022-11-25T06:15:11;89814.88;;;6.51;50.54
10366;BME280;5229;41.820;23.490;2022-11-25T06:17:38;89812.31;;;6.51;50.21
10366;BME280;5229;41.820;23.490;2022-11-25T06:20:07;89820.03;;;6.51;50.15
10366;BME280;5229;41.820;23.490;2022-11-25T06:22:34;89827.00;;;6.50;50.47
10366;BME280;5229;41.820;23.490;2022-11-25T06:25:01;89823.09;;;6.53;50.99
10366;BME280;5229;41.820;23.490;2022-11-25T06:27:28;89826.44;;;6.53;49.91
10366;BME280;5229;41.820;23.490;2022-11-25T06:29:55;89828.72;;;6.55;50.19
10366;BME280;5229;41.820;23.490;2022-11-25T06:32:22;89829.50;;;6.55;50.10
10366;BME280;5229;41.820;23.490;2022-11-25T06:34:49;89827.38;;;6.57;50.03
10366;BME280;5229;41.820;23.490;2022-11-25T06:37:17;89826.06;;;6.60;50.46
10366;BME280;5229;41.820;23.490;2022-11-25T06:39:44;89828.34;;;6.61;50.33
10366;BME280;5229;41.820;23.490;2022-11-25T06:42:11;89828.66;;;6.73;50.12
10366;BME280;5229;41.820;23.490;2022-11-25T06:44:37;89828.00;;;6.95;49.92
10366;BME280;5229;41.820;23.490;2022-11-25T06:47:04;89837.38;;;7.18;49.07
10366;BME280;5229;41.820;23.490;2022-11-25T06:49:31;89848.06;;;7.38;48.53
10366;BME280;5229;41.820;23.490;2022-11-25T06:51:58;89850.69;;;7.60;48.31
10366;BME280;5229;41.820;23.490;2022-11-25T06:54:26;89854.22;;;7.78;48.96
10366;BME280;5229;41.820;23.490;2022-11-25T06:56:53;89841.19;;;7.96;47.77
10366;BME280;5229;41.820;23.490;2022-11-25T06:59:20;89849.03;;;8.13;48.35
10366;BME280;5229;41.820;23.490;2022-11-25T07:01:47;89846.91;;;8.29;48.24
10366;BME280;5229;41.820;23.490;2022-11-25T07:04:14;89845.53;;;8.45;48.04
10366;BME280;5229;41.820;23.490;2022-11-25T07:06:41;89853.84;;;8.64;47.56
10366;BME280;5229;41.820;23.490;2022-11-25T07:09:08;89854.88;;;8.85;47.36
10366;BME280;5229;41.820;23.490;2022-11-25T07:11:39;89868.72;;;9.11;47.39
10366;BME280;5229;41.820;23.490;2022-11-25T07:14:09;89870.69;;;9.53;46.01
10366;BME280;5229;41.820;23.490;2022-11-25T07:16:38;89862.25;;;9.78;45.85
10366;BME280;5229;41.820;23.490;2022-11-25T07:19:05;89873.84;;;9.89;45.85
10366;BME280;5229;41.820;23.490;2022-11-25T07:21:33;89872.63;;;9.95;45.80
10366;BME280;5229;41.820;23.490;2022-11-25T07:24:01;89861.06;;;10.01;45.81
10366;BME280;5229;41.820;23.490;2022-11-25T07:26:31;89863.81;;;10.05;45.32
10366;BME280;5229;41.820;23.490;2022-11-25T07:29:01;89869.47;;;10.07;45.49
10366;BME280;5229;41.820;23.490;2022-11-25T07:31:30;89876.97;;;10.17;45.63
10366;BME280;5229;41.820;23.490;2022-11-25T07:33:59;89866.75;;;10.20;45.07
10366;BME280;5229;41.820;23.490;2022-11-25T07:36:27;89865.84;;;10.25;44.86
10366;BME280;5229;41.820;23.490;2022-11-25T07:38:56;89865.41;;;10.31;44.58
10366;BME280;5229;41.820;23.490;2022-11-25T07:41:24;89877.00;;;10.42;44.47
10366;BME280;5229;41.820;23.490;2022-11-25T07:43:53;89867.22;;;10.48;44.43
10366;BME280;5229;41.820;23.490;2022-11-25T07:46:24;89876.50;;;10.66;43.66
10366;BME280;5229;41.820;23.490;2022-11-25T07:48:54;89881.69;;;10.91;43.47
10366;BME280;5229;41.820;23.490;2022-11-25T07:51:23;89882.72;;;11.07;43.11
10366;BME280;5229;41.820;23.490;2022-11-25T07:53:52;89890.91;;;11.26;43.06
10366;BME280;5229;41.820;23.490;2022-11-25T07:56:19;89893.91;;;11.45;42.70
10366;BME280;5229;41.820;23.490;2022-11-25T07:58:46;89894.63;;;11.63;42.47
10366;BME280;5229;41.820;23.490;2022-11-25T08:01:14;89902.19;;;11.85;41.83
10366;BME280;5229;41.820;23.490;2022-11-25T08:03:46;89901.97;;;11.99;41.54
10366;BME280;5229;41.820;23.490;2022-11-25T08:06:15;89912.00;;;12.09;41.25
10366;BME280;5229;41.820;23.490;2022-11-25T08:08:42;89906.44;;;12.19;40.82
10366;BME280;5229;41.820;23.490;2022-11-25T08:11:11;89912.59;;;12.35;40.74
10366;BME280;5229;41.820;23.490;2022-11-25T08:13:39;89908.13;;;12.44;40.57
10366;BME280;5229;41.820;23.490;2022-11-25T08:16:06;89909.00;;;12.48;40.85
10366;BME280;5229;41.820;23.490;2022-11-25T08:18:34;89912.31;;;12.57;40.78
10366;BME280;5229;41.820;23.490;2022-11-25T08:21:04;89904.69;;;12.72;39.96
10366;BME280;5229;41.820;23.490;2022-11-25T08:23:32;89910.72;;;12.85;39.43
10366;BME280;5229;41.820;23.490;2022-11-25T08:26:03;89905.41;;;13.02;39.70
10366;BME280;5229;41.820;23.490;2022-11-25T08:28:30;89903.91;;;13.13;39.48
10366;BME280;5229;41.820;23.490;2022-11-25T08:31:00;89908.94;;;13.18;39.13
10366;BME280;5229;41.820;23.490;2022-11-25T08:33:28;89910.88;;;13.21;38.84
10366;BME280;5229;41.820;23.490;2022-11-25T08:35:55;89909.22;;;13.49;38.32
10366;BME280;5229;41.820;23.490;2022-11-25T08:38:23;89907.25;;;13.90;37.98
10366;BME280;5229;41.820;23.490;2022-11-25T08:40:50;89916.28;;;14.17;37.35
10366;BME280;5229;41.820;23.490;2022-11-25T08:43:17;89918.69;;;14.46;36.89
10366;BME280;5229;41.820;23.490;2022-11-25T08:45:46;89910.13;;;15.13;35.76
10366;BME280;5229;41.820;23.490;2022-11-25T08:48:13;89907.63;;;16.33;34.76
10366;BME280;5229;41.820;23.490;2022-11-25T08:50:45;89919.25;;;17.78;32.41
10366;BME280;5229;41.820;23.490;2022-11-25T08:53:12;89921.16;;;19.23;30.90
10366;BME280;5229;41.820;23.490;2022-11-25T08:55:41;89920.41;;;20.65;29.17
10366;BME280;5229;41.820;23.490;2022-11-25T08:58:08;89927.41;;;21.69;27.94
10366;BME280;5229;41.820;23.490;2022-11-25T09:00:38;89928.81;;;22.52;26.75
10366;BME280;5229;41.820;23.490;2022-11-25T09:03:05;89934.09;;;23.37;25.76
10366;BME280;5229;41.820;23.490;2022-11-25T09:05:33;89930.38;;;24.24;24.88
10366;BME280;5229;41.820;23.490;2022-11-25T09:08:01;89929.97;;;24.90;23.76
10366;BME280;5229;41.820;23.490;2022-11-25T09:10:28;89927.97;;;25.45;23.66
10366;BME280;5229;41.820;23.490;2022-11-25T09:12:56;89935.41;;;25.95;22.91
10366;BME280;5229;41.820;23.490;2022-11-25T09:15:25;89933.66;;;26.48;22.17
10366;BME280;5229;41.820;23.490;2022-11-25T09:17:57;89929.94;;;26.95;21.31
10366;BME280;5229;41.820;23.490;2022-11-25T09:20:24;89934.66;;;27.34;21.29
10366;BME280;5229;41.820;23.490;2022-11-25T09:22:51;89937.38;;;27.53;20.57
10366;BME280;5229;41.820;23.490;2022-11-25T09:25:17;89936.78;;;27.65;20.57
10366;BME280;5229;41.820;23.490;2022-11-25T09:27:44;89930.84;;;27.77;20.07
10366;BME280;5229;41.820;23.490;2022-11-25T09:30:13;89936.06;;;27.84;19.71
10366;BME280;5229;41.820;23.490;2022-11-25T09:32:40;89934.16;;;27.85;19.16
10366;BME280;5229;41.820;23.490;2022-11-25T09:35:08;89932.25;;;28.05;19.36
10366;BME280;5229;41.820;23.490;2022-11-25T09:37:35;89942.50;;;28.46;19.07
10366;BME280;5229;41.820;23.490;2022-11-25T09:40:02;89941.00;;;28.80;18.86
10366;BME280;5229;41.820;23.490;2022-11-25T09:42:39;89941.34;;;28.47;18.79
10366;BME280;5229;41.820;23.490;2022-11-25T09:45:39;89938.75;;;28.04;19.15
10366;BME280;5229;41.820;23.490;2022-11-25T09:48:43;89934.72;;;28.16;19.08
10366;BME280;5229;41.820;23.490;2022-11-25T09:51:19;89932.66;;;28.43;18.84
10366;BME280;5229;41.820;23.490;2022-11-25T09:53:50;89933.78;;;28.61;18.24
10366;BME280;5229;41.820;23.490;2022-11-25T09:56:26;89935.94;;;28.50;18.06
10366;BME280;5229;41.820;23.490;2022-11-25T09:58:58;89941.13;;;28.38;18.12
10366;BME280;5229;41.820;23.490;2022-11-25T10:01:29;89937.38;;;28.35;18.22
10366;BME280;5229;41.820;23.490;2022-11-25T10:04:01;89931.34;;;28.31;17.79
10366;BME280;5229;41.820;23.490;2022-11-25T10:06:33;89944.03;;;28.27;17.81
10366;BME280;5229;41.820;23.490;2022-11-25T10:09:06;89943.81;;;28.18;18.02
10366;BME280;5229;41.820;23.490;2022-11-25T10:11:48;89933.81;;;28.22;17.97
10366;BME280;5229;41.820;23.490;2022-11-25T10:14:23;89935.59;;;28.29;17.46
10366;BME280;5229;41.820;23.490;2022-11-25T10:16:57;89932.28;;;28.44;18.16
10366;BME280;5229;41.820;23.490;2022-11-25T10:19:37;89934.28;;;28.37;17.97
10366;BME280;5229;41.820;23.490;2022-11-25T10:22:14;89925.41;;;28.24;17.64
10366;BME280;5229;41.820;23.490;2022-11-25T10:24:43;89929.56;;;28.25;17.89
10366;BME280;5229;41.820;23.490;2022-11-25T10:27:18;89931.94;;;28.39;17.60
10366;BME280;5229;41.820;23.490;2022-11-25T10:29:51;89934.22;;;28.21;17.75
10366;BME280;5229;41.820;23.490;2022-11-25T10:32:24;89935.88;;;27.52;18.22
10366;BME280;5229;41.820;23.490;2022-11-25T10:34:53;89927.63;;;26.97;18.41
10366;BME280;5229;41.820;23.490;2022-11-25T10:37:26;89926.69;;;26.54;18.96
10366;BME280;5229;41.820;23.490;2022-11-25T10:39:54;89935.34;;;25.68;19.57
10366;BME280;5229;41.820;23.490;2022-11-25T10:42:22;89924.22;;;24.41;20.69
10366;BME280;5229;41.820;23.490;2022-11-25T10:44:49;89929.19;;;23.07;21.65
10366;BME280;5229;41.820;23.490;2022-11-25T10:47:33;89922.47;;;21.57;22.89
10366;BME280;5229;41.820;23.490;2022-11-25T10:50:10;89925.16;;;20.49;23.72
10366;BME280;5229;41.820;23.490;2022-11-25T10:52:45;89913.56;;;19.44;24.79
10366;BME280;5229;41.820;23.490;2022-11-25T10:55:16;89921.22;;;18.48;25.61
10366;BME280;5229;41.820;23.490;2022-11-25T10:57:43;89917.59;;;17.70;26.64
10366;BME280;5229;41.820;23.490;2022-11-25T11:00:25;89918.94;;;16.87;27.57
10366;BME280;5229;41.820;23.490;2022-11-25T11:02:54;89922.91;;;16.16;28.32
10366;BME280;5229;41.820;23.490;2022-11-25T11:05:23;89909.69;;;15.50;29.06
10366;BME280;5229;41.820;23.490;2022-11-25T11:08:07;89919.44;;;14.98;29.41
10366;BME280;5229;41.820;23.490;2022-11-25T11:10:35;89920.81;;;14.68;29.91
10366;BME280;5229;41.820;23.490;2022-11-25T11:13:03;89926.16;;;14.35;30.70
10366;BME280;5229;41.820;23.490;2022-11-25T11:15:32;89934.31;;;14.10;30.74
10366;BME280;5229;41.820;23.490;2022-11-25T11:18:22;89918.63;;;13.74;31.13
10366;BME280;5229;41.820;23.490;2022-11-25T11:20:50;89920.28;;;13.46;31.99
10366;BME280;5229;41.820;23.490;2022-11-25T11:23:18;89911.97;;;13.20;31.63
10366;BME280;5229;41.820;23.490;2022-11-25T11:25:55;89911.25;;;12.99;32.09
10366;BME280;5229;41.820;23.490;2022-11-25T11:28:25;89918.53;;;12.85;32.30
10366;BME280;5229;41.820;23.490;2022-11-25T11:30:55;89916.38;;;12.66;32.81
10366;BME280;5229;41.820;23.490;2022-11-25T11:33:32;89936.59;;;12.40;33.41
10366;BME280;5229;41.820;23.490;2022-11-25T11:36:08;89921.13;;;12.15;34.16
10366;BME280;5229;41.820;23.490;2022-11-25T11:38:40;89923.38;;;11.96;34.64
10366;BME280;5229;41.820;23.490;2022-11-25T11:41:16;89939.66;;;11.75;34.45
10366;BME280;5229;41.820;23.490;2022-11-25T11:43:54;89932.97;;;11.66;35.18
10366;BME280;5229;41.820;23.490;2022-11-25T11:46:31;89943.97;;;11.54;35.48
10366;BME280;5229;41.820;23.490;2022-11-25T11:49:14;89937.16;;;11.41;36.10
10366;BME280;5229;41.820;23.490;2022-11-25T11:51:54;89945.25;;;11.31;35.57
10366;BME280;5229;41.820;23.490;2022-11-25T11:54:29;89945.56;;;11.21;36.23
10366;BME280;5229;41.820;23.490;2022-11-25T11:57:02;89946.78;;;11.15;36.93
10366;BME280;5229;41.820;23.490;2022-11-25T11:59:45;89959.47;;;11.00;36.66
10366;BME280;5229;41.820;23.490;2022-11-25T12:02:22;89968.63;;;10.89;36.64
10366;BME280;5229;41.820;23.490;2022-11-25T12:04:59;89974.91;;;10.79;36.95
10366;BME280;5229;41.820;23.490;2022-11-25T12:07:31;89969.41;;;10.72;36.75
10366;BME280;5229;41.820;23.490;2022-11-25T12:10:04;89979.47;;;10.65;37.06
10366;BME280;5229;41.820;23.490;2022-11-25T12:12:36;89972.44;;;10.57;37.31
10366;BME280;5229;41.820;23.490;2022-11-25T12:15:11;89968.16;;;10.44;38.33
10366;BME280;5229;41.820;23.490;2022-11-25T12:17:45;89973.78;;;10.29;37.99
10366;BME280;5229;41.820;23.490;2022-11-25T12:20:19;89978.94;;;10.21;38.00
10366;BME280;5229;41.820;23.490;2022-11-25T12:22:56;89977.81;;;10.13;38.45
10366;BME280;5229;41.820;23.490;2022-11-25T12:25:27;89984.22;;;10.07;38.40
10366;BME280;5229;41.820;23.490;2022-11-25T12:27:59;89956.56;;;9.94;39.42
10366;BME280;5229;41.820;23.490;2022-11-25T12:30:31;89977.09;;;9.82;39.09
10366;BME280;5229;41.820;23.490;2022-11-25T12:33:05;89980.41;;;9.74;39.13
10366;BME280;5229;41.820;23.490;2022-11-25T12:35:41;89980.06;;;9.67;39.49
10366;BME280;5229;41.820;23.490;2022-11-25T12:38:17;89974.41;;;9.57;39.57
10366;BME280;5229;41.820;23.490;2022-11-25T12:40:50;89990.81;;;9.52;40.04
10366;BME280;5229;41.820;23.490;2022-11-25T12:43:26;89985.19;;;9.50;39.95
10366;BME280;5229;41.820;23.490;2022-11-25T12:46:04;89996.13;;;9.47;40.34
10366;BME280;5229;41.820;23.490;2022-11-25T12:48:36;89991.84;;;9.43;40.55
10366;BME280;5229;41.820;23.490;2022-11-25T12:51:15;89996.66;;;9.36;40.37
10366;BME280;5229;41.820;23.490;2022-11-25T12:53:49;89991.63;;;9.31;40.68
10366;BME280;5229;41.820;23.490;2022-11-25T12:56:22;89978.78;;;9.26;40.68
10366;BME280;5229;41.820;23.490;2022-11-25T12:59:02;90000.25;;;9.26;41.32
10366;BME280;5229;41.820;23.490;2022-11-25T13:01:47;89998.25;;;9.23;40.78
10366;BME280;5229;41.820;23.490;2022-11-25T13:07:35;89987.97;;;9.10;41.22
10366;BME280;5229;41.820;23.490;2022-11-25T13:10:31;89994.13;;;9.00;41.41
10366;BME280;5229;41.820;23.490;2022-11-25T13:13:13;90000.50;;;8.94;41.34
10366;BME280;5229;41.820;23.490;2022-11-25T13:15:42;89997.72;;;8.90;41.96
10366;BME280;5229;41.820;23.490;2022-11-25T13:18:13;89996.50;;;8.88;41.82
10366;BME280;5229;41.820;23.490;2022-11-25T13:20:47;90002.53;;;8.83;42.12
10366;BME280;5229;41.820;23.490;2022-11-25T13:23:27;90005.53;;;8.77;41.99
10366;BME280;5229;41.820;23.490;2022-11-25T13:26:36;90019.53;;;8.76;41.73
10366;BME280;5229;41.820;23.490;2022-11-25T13:32:28;90001.81;;;8.69;42.42